Time;durP1;ratioP1;P1;durP2;ratioP2;P2;SDS_P1;SDS_P2;PMS_P1;PMS_P2;Temp;Humidity;BMP_temperature;BMP_pressure;BME280_temperature;BME280_humidity;BME280_pressure;Samples;Min_cycle;Max_cycle;Signal;HPM_P1;HPM_P2
2021/12/04 00:01:52;;;;;;;2.03;1.20;;;;;;;;;;5007429;28;20036;-73
2021/12/04 00:04:26;;;;;;;1.50;1.15;;;;;;;;;;5023843;28;20030;-71
2021/12/04 00:06:52;;;;;;;1.77;1.00;;;;;;;;;;5016108;28;20029;-71
2021/12/04 00:09:20;;;;;;;4.32;1.45;;;;;;;;;;5024260;28;20038;-71
2021/12/04 00:11:56;;;;;;;1.52;0.98;;;;;;;;;;5025045;28;20083;-71
2021/12/04 00:14:22;;;;;;;1.65;1.00;;;;;;;;;;5025263;28;20056;-70
2021/12/04 00:16:48;;;;;;;2.47;1.40;;;;;;;;;;5021242;28;20034;-72
2021/12/04 00:19:13;;;;;;;2.97;1.27;;;;;;;;;;5025268;28;20033;-72
2021/12/04 00:21:39;;;;;;;1.73;1.10;;;;;;;;;;5025585;28;20281;-72
2021/12/04 00:24:05;;;;;;;2.47;1.02;;;;;;;;;;5024962;28;20030;-70
2021/12/04 00:26:30;;;;;;;2.53;1.17;;;;;;;;;;5025108;28;20040;-71
2021/12/04 00:28:56;;;;;;;1.95;1.13;;;;;;;;;;5024776;28;20029;-72
2021/12/04 00:31:21;;;;;;;1.70;1.10;;;;;;;;;;5007316;28;20029;-72
2021/12/04 00:33:48;;;;;;;2.58;1.10;;;;;;;;;;5007608;28;20026;-72
2021/12/04 00:36:37;;;;;;;2.83;1.42;;;;;;;;;;5025019;28;20026;-71
2021/12/04 00:49:59;;;;;;;1.50;1.20;;;;;;;;;;5023933;28;20368;-73
2021/12/04 00:52:24;;;;;;;2.03;1.30;;;;;;;;;;5006966;28;20033;-71
2021/12/04 00:54:50;;;;;;;3.03;1.10;;;;;;;;;;5028302;28;20088;-72
2021/12/04 00:57:15;;;;;;;1.95;1.20;;;;;;;;;;5024943;28;20117;-70
2021/12/04 00:59:41;;;;;;;2.10;1.30;;;;;;;;;;5023411;28;20030;-72
2021/12/04 01:02:06;;;;;;;4.90;1.80;;;;;;;;;;5010970;28;20056;-73
2021/12/04 01:04:32;;;;;;;2.22;1.25;;;;;;;;;;5006986;28;20069;-72
2021/12/04 01:06:58;;;;;;;1.70;1.10;;;;;;;;;;5024787;28;20022;-72
2021/12/04 01:09:24;;;;;;;2.58;1.33;;;;;;;;;;5024688;28;20029;-71
2021/12/04 01:11:52;;;;;;;2.28;1.33;;;;;;;;;;5006661;28;20414;-71
2021/12/04 01:14:22;;;;;;;2.85;1.52;;;;;;;;;;5024926;28;20038;-70
2021/12/04 01:16:48;;;;;;;2.10;1.17;;;;;;;;;;5024094;28;20030;-71
2021/12/04 01:19:14;;;;;;;3.05;1.58;;;;;;;;;;5023315;28;20037;-72
2021/12/04 01:21:40;;;;;;;2.13;1.30;;;;;;;;;;5024141;28;20018;-71
2021/12/04 01:24:06;;;;;;;2.42;1.42;;;;;;;;;;5023773;28;20034;-71
2021/12/04 01:26:31;;;;;;;2.40;1.40;;;;;;;;;;5023727;28;20104;-70
2021/12/04 01:28:57;;;;;;;4.68;1.70;;;;;;;;;;5024288;28;20030;-72
2021/12/04 01:31:23;;;;;;;3.20;1.45;;;;;;;;;;5024280;28;20045;-72
2021/12/04 01:33:48;;;;;;;2.70;1.38;;;;;;;;;;5023257;28;20038;-71
2021/12/04 01:36:14;;;;;;;2.17;1.20;;;;;;;;;;5005941;28;20029;-70
2021/12/04 01:38:39;;;;;;;2.40;1.40;;;;;;;;;;5005940;28;20026;-70
2021/12/04 01:41:05;;;;;;;2.65;1.58;;;;;;;;;;5023811;28;20122;-71
2021/12/04 01:43:30;;;;;;;2.75;1.58;;;;;;;;;;5023764;28;20042;-72
2021/12/04 01:45:56;;;;;;;3.00;1.48;;;;;;;;;;5018776;28;20042;-71
2021/12/04 01:48:23;;;;;;;1.65;1.17;;;;;;;;;;5022407;28;20370;-73
2021/12/04 01:50:48;;;;;;;0.70;0.63;;;;;;;;;;5006080;28;20236;-70
2021/12/04 01:53:14;;;;;;;2.92;1.35;;;;;;;;;;5009562;28;20093;-71
2021/12/04 01:55:39;;;;;;;2.83;1.40;;;;;;;;;;5023816;28;20045;-70
2021/12/04 01:58:06;;;;;;;2.05;1.13;;;;;;;;;;5005784;28;20037;-70
2021/12/04 02:00:38;;;;;;;4.00;1.77;;;;;;;;;;5022972;28;20069;-71
2021/12/04 02:03:07;;;;;;;2.22;1.25;;;;;;;;;;5023295;28;20054;-72
2021/12/04 02:05:33;;;;;;;2.47;1.15;;;;;;;;;;5005469;28;20036;-72
2021/12/04 02:07:59;;;;;;;1.25;1.10;;;;;;;;;;5023357;28;20045;-71
2021/12/04 02:10:24;;;;;;;3.72;1.85;;;;;;;;;;5023137;28;20038;-72
2021/12/04 02:12:50;;;;;;;3.00;1.13;;;;;;;;;;5023225;28;20106;-70
2021/12/04 02:15:20;;;;;;;1.77;1.13;;;;;;;;;;5023308;28;20036;-72
2021/12/04 02:17:46;;;;;;;2.22;1.10;;;;;;;;;;5022508;28;20156;-71
2021/12/04 02:20:23;;;;;;;2.42;1.40;;;;;;;;;;5023144;28;20082;-70
2021/12/04 02:22:49;;;;;;;4.25;1.50;;;;;;;;;;5018417;28;20046;-70
2021/12/04 02:25:17;;;;;;;2.70;1.40;;;;;;;;;;5023029;28;20087;-72
2021/12/04 02:27:44;;;;;;;1.98;1.40;;;;;;;;;;5005193;28;20025;-72
2021/12/04 02:30:13;;;;;;;2.53;1.30;;;;;;;;;;5025142;28;20036;-70
2021/12/04 02:32:39;;;;;;;2.92;1.70;;;;;;;;;;5026404;28;20095;-73
2021/12/04 02:35:07;;;;;;;3.03;1.67;;;;;;;;;;5004349;28;20033;-71
2021/12/04 02:37:34;;;;;;;2.40;1.40;;;;;;;;;;5004964;28;20030;-71
2021/12/04 02:40:00;;;;;;;2.72;1.50;;;;;;;;;;5040095;28;20414;-72
2021/12/04 02:42:30;;;;;;;3.25;1.50;;;;;;;;;;5007894;28;20045;-71
2021/12/04 02:44:57;;;;;;;3.10;1.50;;;;;;;;;;5022951;28;20046;-71
2021/12/04 02:47:23;;;;;;;2.63;1.48;;;;;;;;;;5023286;28;20068;-71
2021/12/04 02:49:48;;;;;;;3.70;1.30;;;;;;;;;;5022776;28;20033;-71
2021/12/04 02:52:15;;;;;;;1.70;1.27;;;;;;;;;;5022514;28;20034;-72
2021/12/04 02:54:41;;;;;;;1.95;1.30;;;;;;;;;;5025612;28;20033;-73
2021/12/04 02:57:08;;;;;;;1.35;1.05;;;;;;;;;;5025090;28;20056;-71
2021/12/04 02:59:35;;;;;;;2.10;1.30;;;;;;;;;;5021674;28;20026;-73
2021/12/04 03:02:01;;;;;;;3.05;1.40;;;;;;;;;;5016745;28;20061;-73
2021/12/04 03:04:28;;;;;;;1.40;0.90;;;;;;;;;;5022060;28;20041;-71
2021/12/04 03:06:54;;;;;;;2.47;1.45;;;;;;;;;;5022848;28;20303;-72
2021/12/04 03:09:19;;;;;;;2.90;1.42;;;;;;;;;;5004981;28;20040;-71
2021/12/04 03:11:45;;;;;;;2.95;1.40;;;;;;;;;;5005293;28;20041;-73
2021/12/04 03:14:11;;;;;;;2.90;1.40;;;;;;;;;;5025377;28;20053;-70
2021/12/04 03:16:39;;;;;;;1.75;1.00;;;;;;;;;;5011235;28;20030;-72
2021/12/04 03:19:05;;;;;;;1.90;1.30;;;;;;;;;;5012142;28;20034;-72
2021/12/04 03:21:32;;;;;;;2.58;1.30;;;;;;;;;;5023200;28;20038;-70
2021/12/04 03:24:06;;;;;;;2.63;1.58;;;;;;;;;;5005101;28;20040;-72
2021/12/04 03:26:32;;;;;;;2.22;1.45;;;;;;;;;;5022773;28;20026;-71
2021/12/04 03:29:02;;;;;;;2.38;1.48;;;;;;;;;;5006959;28;20026;-73
2021/12/04 03:42:06;;;;;;;3.72;1.58;;;;;;;;;;5046824;28;20321;-70
2021/12/04 03:44:32;;;;;;;3.40;1.92;;;;;;;;;;5028282;28;20109;-72
2021/12/04 03:47:01;;;;;;;3.30;1.95;;;;;;;;;;5032948;28;20088;-71
2021/12/04 03:49:27;;;;;;;3.03;1.75;;;;;;;;;;5045619;28;20097;-73
2021/12/04 03:51:52;;;;;;;2.88;1.70;;;;;;;;;;5039397;28;20084;-70
2021/12/04 03:54:18;;;;;;;3.58;1.90;;;;;;;;;;5009117;28;20026;-71
2021/12/04 03:56:43;;;;;;;4.28;1.85;;;;;;;;;;5033328;28;20496;-70
2021/12/04 03:59:09;;;;;;;2.97;1.85;;;;;;;;;;5029976;28;20049;-70
2021/12/04 04:01:34;;;;;;;4.97;1.83;;;;;;;;;;5046245;28;20028;-70
2021/12/04 04:04:00;;;;;;;3.33;1.80;;;;;;;;;;5039412;28;20033;-70
2021/12/04 04:06:26;;;;;;;2.83;1.60;;;;;;;;;;5026168;28;20362;-72
2021/12/04 04:08:51;;;;;;;2.60;1.63;;;;;;;;;;5037997;28;20029;-70
2021/12/04 04:11:17;;;;;;;2.80;1.73;;;;;;;;;;5033561;28;20034;-71
2021/12/04 04:13:44;;;;;;;3.15;1.80;;;;;;;;;;5030370;28;20028;-70
2021/12/04 04:16:11;;;;;;;2.83;1.88;;;;;;;;;;5007162;28;20026;-71
2021/12/04 04:18:36;;;;;;;3.42;1.90;;;;;;;;;;5028194;28;20034;-70
2021/12/04 04:21:02;;;;;;;2.72;1.70;;;;;;;;;;5007691;28;20089;-71
2021/12/04 04:23:27;;;;;;;2.45;1.50;;;;;;;;;;5025060;28;20064;-70
2021/12/04 04:25:54;;;;;;;3.20;1.70;;;;;;;;;;5025432;28;20038;-71
2021/12/04 04:28:19;;;;;;;3.15;1.80;;;;;;;;;;5009761;28;20034;-70
2021/12/04 04:30:45;;;;;;;2.95;1.70;;;;;;;;;;5040787;28;20030;-71
2021/12/04 04:33:13;;;;;;;2.58;1.58;;;;;;;;;;5012223;28;20453;-72
2021/12/04 04:35:39;;;;;;;2.50;1.40;;;;;;;;;;5025422;28;20117;-72
2021/12/04 04:57:38;;;;;;;3.97;1.63;;;;;;;;;;5017358;28;19924;-72
2021/12/04 05:00:24;;;;;;;1.88;1.35;;;;;;;;;;5024494;28;20018;-71
2021/12/04 05:13:18;;;;;;;4.55;1.90;;;;;;;;;;5023729;28;20072;-72
2021/12/04 05:20:40;;;;;;;2.78;1.67;;;;;;;;;;5023636;28;20034;-73
2021/12/04 05:23:11;;;;;;;3.25;1.80;;;;;;;;;;5007815;28;20017;-71
2021/12/04 05:25:37;;;;;;;3.20;1.83;;;;;;;;;;5023365;28;20456;-71
2021/12/04 05:28:04;;;;;;;3.47;1.88;;;;;;;;;;5021940;28;20034;-72
2021/12/04 05:30:30;;;;;;;3.20;2.20;;;;;;;;;;5021913;28;20030;-72
2021/12/04 05:32:55;;;;;;;4.00;2.03;;;;;;;;;;5023974;28;20368;-70
2021/12/04 05:35:21;;;;;;;4.30;1.80;;;;;;;;;;5024620;28;20033;-71
2021/12/04 05:37:47;;;;;;;4.53;2.00;;;;;;;;;;5021802;28;20030;-71
2021/12/04 05:40:14;;;;;;;3.08;1.65;;;;;;;;;;5020369;28;20550;-71
2021/12/04 05:42:39;;;;;;;3.60;2.13;;;;;;;;;;5005687;28;20025;-71
2021/12/04 05:45:12;;;;;;;3.05;1.80;;;;;;;;;;5024021;28;20091;-71
2021/12/04 05:47:44;;;;;;;4.30;1.98;;;;;;;;;;5020387;28;20038;-72
2021/12/04 05:55:21;;;;;;;2.30;1.48;;;;;;;;;;5022387;28;20562;-71
2021/12/04 05:57:47;;;;;;;;;;;;;;;;;;5024615;28;20029;-72
2021/12/04 06:00:19;;;;;;;3.13;1.70;;;;;;;;;;5031538;28;19917;-70
2021/12/04 06:02:45;;;;;;;3.53;1.88;;;;;;;;;;5024180;28;20360;-70
2021/12/04 06:05:11;;;;;;;2.78;1.52;;;;;;;;;;5022665;28;20022;-71
2021/12/04 06:07:36;;;;;;;3.65;2.17;;;;;;;;;;5027098;28;20510;-70
2021/12/04 06:10:03;;;;;;;2.10;1.45;;;;;;;;;;5025473;28;20029;-71
2021/12/04 06:12:29;;;;;;;3.08;2.00;;;;;;;;;;5024661;28;20022;-71
2021/12/04 06:14:54;;;;;;;2.72;1.70;;;;;;;;;;5006801;28;20031;-72
2021/12/04 06:17:20;;;;;;;3.78;2.05;;;;;;;;;;5007775;28;20018;-72
2021/12/04 06:22:37;;;;;;;2.88;1.75;;;;;;;;;;5025329;28;20583;-72
2021/12/04 06:25:08;;;;;;;3.13;1.85;;;;;;;;;;5024493;28;20026;-74
2021/12/04 06:27:34;;;;;;;3.63;1.98;;;;;;;;;;5024335;28;20025;-73
2021/12/04 06:30:00;;;;;;;3.38;1.92;;;;;;;;;;5024729;28;20053;-71
2021/12/04 06:32:26;;;;;;;3.70;2.03;;;;;;;;;;5024749;28;20104;-73
2021/12/04 06:34:52;;;;;;;4.32;2.30;;;;;;;;;;5024801;28;20382;-72
2021/12/04 06:37:18;;;;;;;3.85;2.05;;;;;;;;;;5005928;28;20030;-71
2021/12/04 06:39:44;;;;;;;2.63;1.63;;;;;;;;;;5024687;28;20029;-71
2021/12/04 06:42:09;;;;;;;3.92;1.98;;;;;;;;;;5024431;28;20026;-72
2021/12/04 06:44:35;;;;;;;4.13;2.30;;;;;;;;;;5023899;28;20104;-73
2021/12/04 06:47:00;;;;;;;3.15;2.13;;;;;;;;;;5024800;28;20065;-71
2021/12/04 06:49:34;;;;;;;3.10;2.15;;;;;;;;;;5021624;28;20018;-70
2021/12/04 06:52:03;;;;;;;3.20;2.08;;;;;;;;;;5002413;28;20057;-72
2021/12/04 06:54:34;;;;;;;5.35;2.42;;;;;;;;;;5024199;28;20052;-71
2021/12/04 06:56:59;;;;;;;4.43;2.67;;;;;;;;;;5026414;28;20037;-72
2021/12/04 06:59:33;;;;;;;3.60;2.10;;;;;;;;;;5022479;28;20018;-72
2021/12/04 07:01:58;;;;;;;4.95;2.28;;;;;;;;;;5022929;28;20022;-71
2021/12/04 07:04:29;;;;;;;4.18;1.98;;;;;;;;;;5026121;28;20397;-73
2021/12/04 07:06:55;;;;;;;3.53;2.20;;;;;;;;;;5026701;28;20036;-72
2021/12/04 07:09:20;;;;;;;4.25;1.85;;;;;;;;;;5026493;28;20030;-75
2021/12/04 07:11:46;;;;;;;3.00;1.90;;;;;;;;;;5008536;28;20030;-76
2021/12/04 07:14:11;;;;;;;3.45;1.58;;;;;;;;;;5026396;28;20564;-72
2021/12/04 07:16:37;;;;;;;5.45;2.58;;;;;;;;;;5027172;28;20082;-71
2021/12/04 07:19:03;;;;;;;3.97;2.05;;;;;;;;;;5026549;28;20052;-71
2021/12/04 07:21:28;;;;;;;7.47;2.95;;;;;;;;;;5008732;28;20026;-74
2021/12/04 07:23:54;;;;;;;6.80;2.95;;;;;;;;;;5027502;28;20454;-71
2021/12/04 07:26:19;;;;;;;5.78;2.78;;;;;;;;;;5009565;28;20033;-73
2021/12/04 07:28:45;;;;;;;6.65;2.90;;;;;;;;;;5025931;28;20041;-71
2021/12/04 07:31:11;;;;;;;6.95;2.45;;;;;;;;;;5026958;28;20025;-73
2021/12/04 07:33:36;;;;;;;9.02;2.90;;;;;;;;;;5027134;28;20022;-72
2021/12/04 07:36:03;;;;;;;4.63;2.17;;;;;;;;;;5008500;28;20022;-71
2021/12/04 07:38:29;;;;;;;6.78;3.28;;;;;;;;;;5008658;28;20080;-73
2021/12/04 07:40:55;;;;;;;6.78;3.00;;;;;;;;;;5026902;28;20017;-74
2021/12/04 07:43:20;;;;;;;4.07;2.13;;;;;;;;;;5026316;28;20014;-72
2021/12/04 07:45:46;;;;;;;5.95;2.70;;;;;;;;;;5026346;28;20025;-71
2021/12/04 07:48:11;;;;;;;5.35;2.05;;;;;;;;;;5008964;28;20042;-72
2021/12/04 07:50:37;;;;;;;3.25;1.83;;;;;;;;;;5027244;28;20102;-72
2021/12/04 07:53:03;;;;;;;3.47;2.00;;;;;;;;;;5026767;28;20021;-74
2021/12/04 07:55:30;;;;;;;5.10;2.20;;;;;;;;;;5026382;28;20109;-72
2021/12/04 07:57:55;;;;;;;7.00;2.88;;;;;;;;;;5026036;28;20470;-72
2021/12/04 08:00:22;;;;;;;4.05;1.83;;;;;;;;;;5026270;28;20060;-73
2021/12/04 08:02:48;;;;;;;2.33;1.45;;;;;;;;;;5026072;28;20022;-72
2021/12/04 08:05:17;;;;;;;2.22;1.52;;;;;;;;;;5026123;28;20121;-72
2021/12/04 08:07:43;;;;;;;2.63;1.50;;;;;;;;;;5026412;28;20025;-73
2021/12/04 08:10:11;;;;;;;3.08;1.55;;;;;;;;;;5026123;28;20034;-72
2021/12/04 08:12:37;;;;;;;2.30;1.27;;;;;;;;;;5008765;28;20113;-73
2021/12/04 08:15:08;;;;;;;4.35;1.30;;;;;;;;;;5007040;28;20090;-76
2021/12/04 08:17:34;;;;;;;1.48;0.90;;;;;;;;;;5026008;28;20052;-74
2021/12/04 08:20:00;;;;;;;1.60;0.88;;;;;;;;;;5025834;28;20041;-71
2021/12/04 08:22:25;;;;;;;3.03;1.10;;;;;;;;;;5023215;28;20089;-73
2021/12/04 08:24:51;;;;;;;1.75;0.90;;;;;;;;;;5025614;28;20022;-71
2021/12/04 08:27:17;;;;;;;2.42;0.45;;;;;;;;;;5025772;28;20026;-71
2021/12/04 08:29:43;;;;;;;2.05;0.75;;;;;;;;;;5025436;28;20045;-72
2021/12/04 08:32:09;;;;;;;0.57;0.57;;;;;;;;;;5008184;28;20083;-71
2021/12/04 08:34:36;;;;;;;0.95;0.70;;;;;;;;;;5025751;28;20040;-72
2021/12/04 08:37:03;;;;;;;0.80;0.60;;;;;;;;;;5033668;28;20029;-71
2021/12/04 08:39:29;;;;;;;0.73;0.60;;;;;;;;;;5025467;28;20025;-73
2021/12/04 08:41:55;;;;;;;0.77;0.70;;;;;;;;;;5025887;28;20091;-73
2021/12/04 08:44:20;;;;;;;0.55;0.55;;;;;;;;;;5026174;28;20026;-72
2021/12/04 08:46:46;;;;;;;0.75;0.60;;;;;;;;;;5030021;28;20041;-72
2021/12/04 08:49:12;;;;;;;1.33;0.70;;;;;;;;;;5025815;28;20018;-75
2021/12/04 08:51:38;;;;;;;1.52;0.85;;;;;;;;;;5024082;28;20022;-71
2021/12/04 08:54:05;;;;;;;0.70;0.70;;;;;;;;;;5006227;28;20068;-75
2021/12/04 08:56:33;;;;;;;1.20;0.90;;;;;;;;;;5025112;28;20064;-72
2021/12/04 08:58:59;;;;;;;1.90;0.75;;;;;;;;;;5023317;28;20094;-72
2021/12/04 09:01:29;;;;;;;2.95;1.20;;;;;;;;;;5024177;28;20236;-72
2021/12/04 09:04:11;;;;;;;1.65;1.05;;;;;;;;;;5025880;28;20485;-72
2021/12/04 09:06:38;;;;;;;1.55;0.90;;;;;;;;;;5007313;28;20030;-72
2021/12/04 09:09:05;;;;;;;1.45;1.00;;;;;;;;;;5005704;28;20034;-73
2021/12/04 09:11:35;;;;;;;4.47;0.93;;;;;;;;;;5006819;28;20038;-71
2021/12/04 09:14:02;;;;;;;1.83;1.10;;;;;;;;;;5023839;28;20109;-71
2021/12/04 09:16:28;;;;;;;1.40;1.13;;;;;;;;;;5024864;28;20105;-71
2021/12/04 09:18:55;;;;;;;2.35;1.00;;;;;;;;;;5023069;28;20030;-70
2021/12/04 09:21:22;;;;;;;1.23;0.90;;;;;;;;;;5024525;28;20053;-73
2021/12/04 09:24:11;;;;;;;2.17;0.95;;;;;;;;;;5009003;28;20133;-72
2021/12/04 09:34:16;;;;;;;1.23;0.60;;;;;;;;;;5023451;28;20029;-72
2021/12/04 10:01:33;;;;;;;1.70;0.90;;;;;;;;;;5029963;28;20029;-74
2021/12/04 10:23:10;;;;;;;1.63;0.90;;;;;;;;;;5018861;28;20050;-73
2021/12/04 10:33:48;;;;;;;0.95;0.50;;;;;;;;;;5016644;28;20064;-73
2021/12/04 10:36:26;;;;;;;0.70;0.60;;;;;;;;;;5024107;28;20089;-73
2021/12/04 10:38:52;;;;;;;0.52;0.52;;;;;;;;;;5030764;28;20044;-73
2021/12/04 10:41:17;;;;;;;1.05;0.93;;;;;;;;;;5033560;28;20084;-73
2021/12/04 10:43:43;;;;;;;0.95;0.60;;;;;;;;;;5031789;28;20029;-73
2021/12/04 10:46:14;;;;;;;0.98;0.70;;;;;;;;;;5032673;28;20041;-74
2021/12/04 10:48:48;;;;;;;2.13;1.00;;;;;;;;;;5011386;28;20358;-72
2021/12/04 10:51:35;;;;;;;1.40;0.52;;;;;;;;;;5009921;28;20013;-73
2021/12/04 10:54:24;;;;;;;1.00;0.80;;;;;;;;;;5032645;28;20149;-73
2021/12/04 10:57:03;;;;;;;2.22;0.65;;;;;;;;;;5035988;28;20025;-74
2021/12/04 10:59:47;;;;;;;1.17;0.55;;;;;;;;;;5026329;28;20269;-75
2021/12/04 11:02:24;;;;;;;0.57;0.57;;;;;;;;;;5042379;28;20116;-75
2021/12/04 11:04:54;;;;;;;1.25;0.68;;;;;;;;;;5039623;28;20104;-74
2021/12/04 11:43:10;;;;;;;2.03;1.00;;;;;;;;;;5014869;28;19906;-77
2021/12/04 11:45:44;;;;;;;1.50;0.73;;;;;;;;;;5023324;28;20026;-76
2021/12/04 11:48:10;;;;;;;0.70;0.70;;;;;;;;;;5005247;28;20074;-77
2021/12/04 11:50:40;;;;;;;1.15;0.80;;;;;;;;;;5008280;28;20092;-77
2021/12/04 11:53:16;;;;;;;1.45;0.90;;;;;;;;;;5027180;28;20022;-76
2021/12/04 11:55:45;;;;;;;0.98;0.70;;;;;;;;;;5012375;28;20057;-77
2021/12/04 11:58:40;;;;;;;2.53;0.95;;;;;;;;;;5026913;28;20029;-77
2021/12/04 12:01:18;;;;;;;2.65;1.23;;;;;;;;;;5026512;28;20029;-76
2021/12/04 12:03:51;;;;;;;2.13;1.00;;;;;;;;;;5026627;28;20021;-76
2021/12/04 12:06:28;;;;;;;1.77;0.93;;;;;;;;;;5009147;28;20026;-75
2021/12/04 12:09:07;;;;;;;2.15;0.80;;;;;;;;;;5008785;28;20036;-76
2021/12/04 12:11:34;;;;;;;1.92;0.80;;;;;;;;;;5026910;28;20030;-77
2021/12/04 12:14:04;;;;;;;1.08;0.70;;;;;;;;;;5008678;28;20120;-77
2021/12/04 12:16:37;;;;;;;1.60;0.88;;;;;;;;;;5026596;28;20022;-78
2021/12/04 12:19:12;;;;;;;1.80;1.00;;;;;;;;;;5026287;28;20036;-78
2021/12/04 12:38:33;;;;;;;2.95;0.70;;;;;;;;;;5034959;28;20025;-76
2021/12/04 12:41:05;;;;;;;1.98;0.93;;;;;;;;;;5028022;28;20113;-76
2021/12/04 12:44:00;;;;;;;2.75;0.80;;;;;;;;;;5035198;28;20018;-77
2021/12/04 12:46:37;;;;;;;2.50;0.73;;;;;;;;;;5007721;28;20029;-76
2021/12/04 12:49:05;;;;;;;2.20;1.00;;;;;;;;;;5007274;28;20026;-78
2021/12/04 12:51:35;;;;;;;2.33;0.75;;;;;;;;;;5008798;28;20032;-77
2021/12/04 12:54:05;;;;;;;2.42;0.73;;;;;;;;;;5025571;28;20049;-77
2021/12/04 12:56:33;;;;;;;2.70;0.85;;;;;;;;;;5035532;28;20358;-77
2021/12/04 12:59:20;;;;;;;1.73;0.70;;;;;;;;;;5025832;28;20036;-77
2021/12/04 13:13:39;;;;;;;2.83;1.35;;;;;;;;;;5024906;28;20032;-77
2021/12/04 13:16:16;;;;;;;3.67;1.70;;;;;;;;;;4988564;28;20030;-77
2021/12/04 13:18:46;;;;;;;4.57;2.05;;;;;;;;;;5024718;28;20017;-77
2021/12/04 13:21:12;;;;;;;2.75;1.33;;;;;;;;;;5025692;28;20030;-77
2021/12/04 13:23:39;;;;;;;2.08;0.98;;;;;;;;;;5024536;28;20029;-78
2021/12/04 13:26:12;;;;;;;1.52;0.75;;;;;;;;;;5024965;28;20026;-78
2021/12/04 13:28:44;;;;;;;1.40;0.95;;;;;;;;;;5025382;28;20183;-78
2021/12/04 13:31:10;;;;;;;1.98;1.05;;;;;;;;;;5025227;28;20026;-78
2021/12/04 13:33:37;;;;;;;1.40;0.82;;;;;;;;;;5024599;28;20053;-78
2021/12/04 13:36:25;;;;;;;2.08;0.73;;;;;;;;;;5024959;28;20486;-79
2021/12/04 13:39:03;;;;;;;3.35;0.77;;;;;;;;;;5005816;28;20422;-78
2021/12/04 13:41:30;;;;;;;7.07;1.17;;;;;;;;;;5007050;28;20041;-77
2021/12/04 13:43:57;;;;;;;4.05;1.00;;;;;;;;;;5024438;28;20037;-78
2021/12/04 13:46:23;;;;;;;1.20;0.70;;;;;;;;;;5006333;28;20053;-78
2021/12/04 13:48:50;;;;;;;1.67;1.13;;;;;;;;;;5006345;28;20060;-79
2021/12/04 13:51:16;;;;;;;1.88;1.10;;;;;;;;;;5021589;28;20533;-78
2021/12/04 13:53:44;;;;;;;2.70;1.15;;;;;;;;;;5034992;28;20025;-77
2021/12/04 13:56:13;;;;;;;0.95;0.77;;;;;;;;;;5035159;28;20520;-78
2021/12/04 13:59:01;;;;;;;2.03;0.80;;;;;;;;;;5026221;28;20033;-78
2021/12/04 14:01:29;;;;;;;1.15;0.90;;;;;;;;;;5004778;28;20027;-78
2021/12/04 14:03:56;;;;;;;1.92;0.93;;;;;;;;;;5014724;28;20029;-78
2021/12/04 14:06:22;;;;;;;1.42;1.00;;;;;;;;;;5023715;28;20029;-78
2021/12/04 14:08:59;;;;;;;1.65;0.80;;;;;;;;;;5006587;28;20025;-78
2021/12/04 14:11:34;;;;;;;0.93;0.73;;;;;;;;;;5006578;28;20026;-78
2021/12/04 14:14:21;;;;;;;1.88;0.80;;;;;;;;;;5023551;28;20266;-78
2021/12/04 14:16:51;;;;;;;1.98;0.80;;;;;;;;;;5024297;28;20022;-78
2021/12/04 14:19:28;;;;;;;0.95;0.68;;;;;;;;;;5023809;28;20041;-78
2021/12/04 14:22:02;;;;;;;1.75;0.80;;;;;;;;;;5022603;28;20029;-78
2021/12/04 14:24:56;;;;;;;1.92;0.80;;;;;;;;;;5005513;28;20057;-78
2021/12/04 14:27:31;;;;;;;0.40;0.40;;;;;;;;;;5005876;28;20042;-78
2021/12/04 14:30:05;;;;;;;3.95;0.77;;;;;;;;;;5023938;28;20041;-78
2021/12/04 14:32:32;;;;;;;;;;;;;;;;;;5023759;28;20134;-78
2021/12/04 14:35:10;;;;;;;1.02;0.60;;;;;;;;;;5023536;28;19985;-78
2021/12/04 14:37:41;;;;;;;1.55;0.80;;;;;;;;;;5036809;28;20077;-77
2021/12/04 14:40:10;;;;;;;0.95;0.60;;;;;;;;;;5011261;28;20403;-77
2021/12/04 14:42:37;;;;;;;2.40;0.80;;;;;;;;;;5023943;28;20465;-78
2021/12/04 14:45:10;;;;;;;1.35;0.80;;;;;;;;;;5023318;28;20037;-78
2021/12/04 14:47:41;;;;;;;4.57;0.55;;;;;;;;;;4997309;28;20042;-77
2021/12/04 14:50:09;;;;;;;0.80;0.60;;;;;;;;;;5042985;28;20080;-78
2021/12/04 14:52:35;;;;;;;3.05;0.77;;;;;;;;;;5040154;28;20030;-78
2021/12/04 14:55:21;;;;;;;2.50;0.75;;;;;;;;;;5040546;28;20557;-78
2021/12/04 14:57:47;;;;;;;1.40;0.80;;;;;;;;;;5042915;28;20022;-78
2021/12/04 15:00:21;;;;;;;1.75;0.70;;;;;;;;;;5010485;28;20078;-78
2021/12/04 15:02:55;;;;;;;;;;;;;;;;;;5010407;28;20037;-78
2021/12/04 15:05:46;;;;;;;1.63;0.90;;;;;;;;;;5024175;28;19913;-78
2021/12/04 15:08:14;;;;;;;1.90;0.80;;;;;;;;;;5014877;28;20054;-77
2021/12/04 15:10:41;;;;;;;1.63;0.77;;;;;;;;;;5023375;28;20037;-78
2021/12/04 15:13:23;;;;;;;1.92;0.90;;;;;;;;;;5023095;28;20021;-77
2021/12/04 15:15:50;;;;;;;2.78;1.08;;;;;;;;;;5017063;28;22475;-77
2021/12/04 15:18:20;;;;;;;1.75;0.90;;;;;;;;;;5022340;28;20026;-76
2021/12/04 15:21:17;;;;;;;4.40;1.42;;;;;;;;;;5027774;28;20032;-78
2021/12/04 15:23:45;;;;;;;2.53;1.40;;;;;;;;;;5002375;28;20042;-78
2021/12/04 15:26:18;;;;;;;2.08;1.00;;;;;;;;;;5024200;28;20033;-78
2021/12/04 15:28:48;;;;;;;1.63;1.00;;;;;;;;;;5009654;28;20022;-79
2021/12/04 15:31:14;;;;;;;4.20;1.95;;;;;;;;;;5009837;28;20564;-78
2021/12/04 15:33:44;;;;;;;1.38;1.05;;;;;;;;;;5009639;28;20025;-79
2021/12/04 15:36:31;;;;;;;1.35;0.90;;;;;;;;;;5027786;28;20029;-78
2021/12/04 15:38:59;;;;;;;2.80;1.45;;;;;;;;;;5026610;28;20053;-79
2021/12/04 15:47:18;;;;;;;1.23;0.90;;;;;;;;;;5023709;28;20100;-78
2021/12/04 15:49:57;;;;;;;2.28;1.33;;;;;;;;;;5007110;28;20033;-78
2021/12/04 15:55:15;;;;;;;4.35;2.05;;;;;;;;;;5034338;28;20032;-79
2021/12/04 15:57:55;;;;;;;2.33;1.25;;;;;;;;;;5026842;28;20037;-78
2021/12/04 16:00:25;;;;;;;2.08;1.27;;;;;;;;;;5006565;28;20466;-79
2021/12/04 16:02:51;;;;;;;3.20;1.35;;;;;;;;;;5026844;28;20022;-78
2021/12/04 16:05:21;;;;;;;3.08;1.70;;;;;;;;;;5034531;28;20120;-78
2021/12/04 16:08:14;;;;;;;2.67;1.33;;;;;;;;;;5041811;28;20036;-79
2021/12/04 16:10:45;;;;;;;4.68;1.60;;;;;;;;;;4994600;28;20072;-79
2021/12/04 16:13:15;;;;;;;3.58;1.48;;;;;;;;;;5034894;28;20451;-78
2021/12/04 16:15:40;;;;;;;4.10;1.73;;;;;;;;;;5033992;28;20032;-78
2021/12/04 16:18:07;;;;;;;2.63;1.58;;;;;;;;;;5033400;28;20120;-77
2021/12/04 16:20:35;;;;;;;2.63;1.58;;;;;;;;;;5043605;28;20100;-77
2021/12/04 16:23:02;;;;;;;3.72;1.77;;;;;;;;;;5023305;28;20033;-78
2021/12/04 16:25:36;;;;;;;2.88;1.58;;;;;;;;;;5024543;28;20022;-77
2021/12/04 16:37:56;;;;;;;4.25;1.73;;;;;;;;;;5040876;28;20025;-78
2021/12/04 16:40:33;;;;;;;2.78;1.60;;;;;;;;;;5038974;28;20088;-78
2021/12/04 16:43:13;;;;;;;2.63;1.45;;;;;;;;;;5021816;28;20014;-78
2021/12/04 16:45:43;;;;;;;4.38;2.10;;;;;;;;;;5009042;28;20482;-78
2021/12/04 16:48:11;;;;;;;2.38;1.60;;;;;;;;;;5008903;28;20045;-75
2021/12/04 16:58:47;;;;;;;1.83;1.20;;;;;;;;;;5021593;28;20021;-77
2021/12/04 17:01:16;;;;;;;3.35;1.67;;;;;;;;;;5035833;28;20021;-77
2021/12/04 17:03:42;;;;;;;3.83;1.50;;;;;;;;;;5037787;28;20021;-77
2021/12/04 17:06:07;;;;;;;1.90;1.20;;;;;;;;;;5028217;28;20018;-77
2021/12/04 17:08:35;;;;;;;2.40;1.50;;;;;;;;;;5008476;28;20017;-77
2021/12/04 17:11:01;;;;;;;1.90;1.27;;;;;;;;;;5019886;28;20049;-77
2021/12/04 17:13:26;;;;;;;2.85;1.58;;;;;;;;;;5008414;28;20076;-77
2021/12/04 17:15:53;;;;;;;6.18;3.20;;;;;;;;;;5026373;28;20433;-77
2021/12/04 17:18:23;;;;;;;5.53;3.22;;;;;;;;;;5026137;28;20466;-77
2021/12/04 17:20:50;;;;;;;4.18;2.70;;;;;;;;;;5026069;28;20081;-77
2021/12/04 17:23:17;;;;;;;3.85;1.75;;;;;;;;;;5025980;28;20045;-76
2021/12/04 17:25:42;;;;;;;4.28;1.67;;;;;;;;;;5026361;28;20086;-76
2021/12/04 17:28:34;;;;;;;2.45;1.50;;;;;;;;;;5007358;28;20033;-76
2021/12/04 17:31:00;;;;;;;3.28;1.83;;;;;;;;;;5013289;28;20026;-76
2021/12/04 17:33:26;;;;;;;3.85;1.67;;;;;;;;;;5007797;28;20076;-76
2021/12/04 17:35:51;;;;;;;3.75;2.20;;;;;;;;;;5025724;28;20065;-77
2021/12/04 17:38:16;;;;;;;2.92;1.75;;;;;;;;;;5008029;28;20026;-76
2021/12/04 17:40:44;;;;;;;4.72;1.52;;;;;;;;;;5025806;28;20021;-76
2021/12/04 17:43:10;;;;;;;4.07;1.90;;;;;;;;;;5008423;28;20018;-76
2021/12/04 17:45:36;;;;;;;5.10;2.20;;;;;;;;;;5008158;28;20021;-77
2021/12/04 17:48:05;;;;;;;3.20;1.90;;;;;;;;;;5024939;28;20092;-76
2021/12/04 17:50:39;;;;;;;3.45;2.10;;;;;;;;;;5025708;28;20032;-75
2021/12/04 17:53:05;;;;;;;3.65;1.60;;;;;;;;;;4995478;28;20018;-75
2021/12/04 17:55:31;;;;;;;3.53;1.75;;;;;;;;;;5007768;28;20030;-77
2021/12/04 17:57:58;;;;;;;3.75;2.08;;;;;;;;;;5025843;28;20033;-75
2021/12/04 18:00:48;;;;;;;4.55;1.95;;;;;;;;;;5001905;28;20026;-77
2021/12/04 18:03:18;;;;;;;2.47;1.70;;;;;;;;;;5008239;28;20021;-76
2021/12/04 18:05:46;;;;;;;2.53;1.40;;;;;;;;;;5004508;28;20049;-76
2021/12/04 18:08:14;;;;;;;2.78;1.48;;;;;;;;;;5022422;28;20026;-76
2021/12/04 18:10:40;;;;;;;3.78;2.22;;;;;;;;;;5024970;28;20026;-76
2021/12/04 18:13:11;;;;;;;2.72;1.70;;;;;;;;;;5024819;28;20036;-76
2021/12/04 18:15:54;;;;;;;3.67;1.63;;;;;;;;;;5024242;28;20474;-75
2021/12/04 18:18:22;;;;;;;2.80;1.63;;;;;;;;;;5022334;28;20025;-76
2021/12/04 18:20:48;;;;;;;2.75;1.67;;;;;;;;;;5018952;28;20026;-76
2021/12/04 18:23:15;;;;;;;2.83;2.00;;;;;;;;;;5021487;28;20056;-76
2021/12/04 18:25:42;;;;;;;2.42;1.23;;;;;;;;;;5025270;28;20026;-76
2021/12/04 18:28:07;;;;;;;2.70;1.60;;;;;;;;;;5024803;28;20033;-76
2021/12/04 18:30:35;;;;;;;5.50;1.55;;;;;;;;;;5007177;28;20017;-75